Terminal Aerodrome Forecast
Issued by NWS

Home | Current Version | Previous Version | Text Only | Print | Product List | Glossary On
Versions: 1 2 3 4 5 6 7 8 9 10 11 12 13 14 15 16 17 18 19 20 21 22 23 24 25 26 27 28 29 30
000
FTUS42 KCAE 012100 AAA
TAFCUB
TAF AMD
KCUB 012131Z 0122/0218 VRB03KT P6SM SCT070 BKN180
     FM012200 16006KT P6SM VCSH SCT060 BKN150
      TEMPO 0122/0124 VRB10G20KT 3SM +TSRA BR SCT020 BKN050CB OVC100
     FM020200 VRB03KT P6SM SCT200
     FM021500 24004KT P6SM SCT200=

USA.gov is the U.S. government's official web portal to all federal, state and local government web resources and services.